createdAt,value
2023-09-21T00:37:33.984Z,16.67
2023-09-21T00:40:06.559Z,16.68
2023-09-21T00:42:36.484Z,16.67
2023-09-21T00:45:08.288Z,16.66
2023-09-21T00:47:40.229Z,16.67
2023-09-21T00:50:12.595Z,16.69
2023-09-21T00:52:46.552Z,16.67
2023-09-21T00:55:24.346Z,16.66
2023-09-21T00:57:56.476Z,16.65
2023-09-21T01:00:27.946Z,16.65
2023-09-21T01:03:00.487Z,16.64
2023-09-21T01:05:32.997Z,16.66
2023-09-21T01:08:06.515Z,16.57
2023-09-21T01:10:37.536Z,16.60
2023-09-21T01:13:08.623Z,16.63
2023-09-21T01:15:38.935Z,16.63
2023-09-21T01:18:11.277Z,16.64
2023-09-21T01:20:43.497Z,16.67
2023-09-21T01:23:18.546Z,16.66
2023-09-21T01:25:54.044Z,16.66
2023-09-21T01:28:25.146Z,16.66
2023-09-21T01:30:58.512Z,16.66
2023-09-21T01:33:29.257Z,16.62
2023-09-21T01:35:59.259Z,16.60
2023-09-21T01:38:29.224Z,16.55
2023-09-21T01:41:01.655Z,16.54
2023-09-21T01:43:31.612Z,16.51
2023-09-21T01:46:01.621Z,16.49
2023-09-21T01:48:31.576Z,16.43
2023-09-21T01:51:01.709Z,16.36
2023-09-21T01:53:31.684Z,16.34
2023-09-21T01:56:04.087Z,16.32
2023-09-21T01:58:34.188Z,16.35
2023-09-21T02:01:05.064Z,16.28
2023-09-21T02:03:35.239Z,16.25
2023-09-21T02:06:05.167Z,16.25
2023-09-21T02:08:36.144Z,16.24
2023-09-21T02:11:09.456Z,16.26
2023-09-21T02:13:39.346Z,16.23
2023-09-21T02:16:10.438Z,16.27
2023-09-21T02:18:40.261Z,16.26
2023-09-21T02:21:12.784Z,16.16
2023-09-21T02:23:42.924Z,16.16
2023-09-21T02:26:15.918Z,16.12
2023-09-21T02:28:46.956Z,16.12
2023-09-21T02:31:17.095Z,16.14
2023-09-21T02:33:46.972Z,16.15
2023-09-21T02:36:21.488Z,16.10
2023-09-21T02:38:51.943Z,16.08
2023-09-21T02:41:24.546Z,16.09
2023-09-21T02:43:55.356Z,16.07
2023-09-21T02:46:25.657Z,16.05
2023-09-21T02:48:55.569Z,16.07
2023-09-21T02:51:25.529Z,16.10
2023-09-21T02:54:01.352Z,16.08
2023-09-21T02:56:33.984Z,16.03
2023-09-21T02:59:04.153Z,16.02
2023-09-21T03:01:33.929Z,15.99
2023-09-21T03:04:04.818Z,15.99
2023-09-21T03:06:36.726Z,15.99
2023-09-21T03:09:08.913Z,15.95
2023-09-21T03:11:43.740Z,15.94
2023-09-21T03:14:15.042Z,15.92
2023-09-21T03:16:47.059Z,15.92
2023-09-21T03:19:17.958Z,15.94
2023-09-21T03:21:47.842Z,15.95
2023-09-21T03:24:18.867Z,15.96
2023-09-21T03:26:51.877Z,15.94
2023-09-21T03:29:22.011Z,15.95
2023-09-21T03:31:51.830Z,15.92
2023-09-21T03:34:21.760Z,15.93
2023-09-21T03:36:51.521Z,15.94
2023-09-21T03:39:22.458Z,15.91
2023-09-21T03:41:58.650Z,15.86
2023-09-21T03:44:30.086Z,15.91
2023-09-21T03:47:00.168Z,15.93
2023-09-21T03:49:30.005Z,15.93
2023-09-21T03:52:00.100Z,15.95
2023-09-21T03:54:30.052Z,15.96
2023-09-21T03:57:02.482Z,16.02
2023-09-21T03:59:32.364Z,15.98
2023-09-21T04:02:02.334Z,15.94
2023-09-21T04:04:32.861Z,15.94
2023-09-21T04:07:03.030Z,15.96
2023-09-21T04:09:32.755Z,15.91
2023-09-21T04:12:05.313Z,15.90
2023-09-21T04:14:36.713Z,15.89
2023-09-21T04:17:07.489Z,15.87
2023-09-21T04:19:38.736Z,15.90
2023-09-21T04:22:09.157Z,15.91
2023-09-21T04:24:38.832Z,15.87
2023-09-21T04:27:11.297Z,15.89
2023-09-21T04:29:41.180Z,15.86
2023-09-21T04:32:11.040Z,15.85
2023-09-21T04:34:41.222Z,15.86
2023-09-21T04:37:11.090Z,15.84
2023-09-21T04:39:40.893Z,15.81
2023-09-21T04:42:14.005Z,15.81
2023-09-21T04:44:44.891Z,15.82
2023-09-21T04:47:15.013Z,15.80
2023-09-21T04:49:46.464Z,15.80
2023-09-21T04:52:16.221Z,15.80
2023-09-21T04:54:46.077Z,15.80
2023-09-21T04:57:18.974Z,15.82
2023-09-21T04:59:48.941Z,15.77
2023-09-21T05:02:18.767Z,15.79
2023-09-21T05:04:48.677Z,15.77
2023-09-21T05:07:19.516Z,15.82
2023-09-21T05:09:49.847Z,15.80
2023-09-21T05:12:22.657Z,15.82
2023-09-21T05:14:52.899Z,15.77
2023-09-21T05:17:22.829Z,15.76
2023-09-21T05:19:53.248Z,15.81
2023-09-21T05:22:22.810Z,15.77
2023-09-21T05:24:53.002Z,15.75
2023-09-21T05:27:25.442Z,15.77
2023-09-21T05:29:55.268Z,15.78
2023-09-21T05:32:25.040Z,15.81
2023-09-21T05:34:55.482Z,15.86
2023-09-21T05:37:25.037Z,15.87
2023-09-21T05:39:55.550Z,15.90
2023-09-21T05:42:28.043Z,15.92
2023-09-21T05:44:57.933Z,15.91
2023-09-21T05:47:28.683Z,15.93
2023-09-21T05:49:58.489Z,15.95
2023-09-21T05:52:28.479Z,15.95
2023-09-21T05:54:58.389Z,15.97
2023-09-21T05:57:31.154Z,15.97
2023-09-21T06:00:01.090Z,15.96
2023-09-21T06:02:30.920Z,16.02
2023-09-21T06:05:00.811Z,16.00
2023-09-21T06:07:30.640Z,16.02
2023-09-21T06:10:00.450Z,16.04
2023-09-21T06:12:32.867Z,16.02
2023-09-21T06:15:03.609Z,16.06
2023-09-21T06:17:33.442Z,16.07
2023-09-21T06:20:04.895Z,16.10
2023-09-21T06:22:35.292Z,16.18
2023-09-21T06:25:07.561Z,16.22
2023-09-21T06:27:40.664Z,16.23
2023-09-21T06:30:13.245Z,16.28
2023-09-21T06:32:43.241Z,16.30
2023-09-21T06:35:15.174Z,16.36
2023-09-21T06:37:45.059Z,16.38
2023-09-21T06:40:15.252Z,16.41
2023-09-21T06:42:47.886Z,16.48
2023-09-21T06:45:17.747Z,16.52
2023-09-21T06:47:49.076Z,16.57
2023-09-21T06:50:19.090Z,16.60
2023-09-21T06:52:49.052Z,16.61
2023-09-21T06:55:18.871Z,16.68
2023-09-21T06:57:51.258Z,16.74
2023-09-21T07:00:21.373Z,16.82
2023-09-21T07:02:51.470Z,16.87
2023-09-21T07:05:21.426Z,16.95
2023-09-21T07:07:51.188Z,16.98
2023-09-21T07:10:21.129Z,17.10
2023-09-21T07:12:54.496Z,17.22
2023-09-21T07:15:24.470Z,17.28
2023-09-21T07:17:54.577Z,17.39
2023-09-21T07:20:24.989Z,17.49
2023-09-21T07:22:54.579Z,17.58
2023-09-21T07:25:24.388Z,17.69
2023-09-21T07:27:56.813Z,17.78
2023-09-21T07:30:27.020Z,17.92
2023-09-21T07:32:58.312Z,17.99
2023-09-21T07:35:28.311Z,18.10
2023-09-21T07:38:00.533Z,18.23
2023-09-21T07:40:32.838Z,18.37
2023-09-21T07:43:05.517Z,18.42
2023-09-21T07:45:35.494Z,18.47
2023-09-21T07:48:06.876Z,18.62
2023-09-21T07:50:38.178Z,18.70
2023-09-21T07:53:09.198Z,18.84
2023-09-21T07:55:39.242Z,18.93
2023-09-21T07:58:11.722Z,19.09
2023-09-21T08:00:41.493Z,19.27
2023-09-21T08:03:11.469Z,19.35
2023-09-21T08:05:41.441Z,19.57
2023-09-21T08:08:11.334Z,19.89
2023-09-21T08:10:41.140Z,20.25
2023-09-21T08:13:13.658Z,20.37
2023-09-21T08:15:45.349Z,20.51
2023-09-21T08:18:15.257Z,20.57
2023-09-21T08:20:45.145Z,20.46
2023-09-21T08:23:15.777Z,20.73
2023-09-21T08:25:45.622Z,20.96
2023-09-21T08:28:18.553Z,21.26
2023-09-21T08:30:48.454Z,21.52
2023-09-21T08:33:18.929Z,21.66
2023-09-21T08:35:48.894Z,21.62
2023-09-21T08:38:19.091Z,21.62
2023-09-21T08:40:49.195Z,21.56
2023-09-21T08:43:26.147Z,21.53
2023-09-21T08:45:56.631Z,21.45
2023-09-21T08:48:28.226Z,21.38
2023-09-21T08:51:02.060Z,21.33
2023-09-21T08:53:32.108Z,21.29
2023-09-21T08:56:02.733Z,21.22
2023-09-21T08:58:38.988Z,21.25
2023-09-21T09:01:09.725Z,21.27
2023-09-21T09:03:40.410Z,21.62
2023-09-21T09:06:10.344Z,22.00
2023-09-21T09:08:40.219Z,22.11
2023-09-21T09:11:11.350Z,22.15
2023-09-21T09:13:43.829Z,22.54
2023-09-21T09:16:14.292Z,22.91
2023-09-21T09:18:44.365Z,23.20
2023-09-21T09:21:16.110Z,23.44
2023-09-21T09:23:46.217Z,23.53
2023-09-21T09:26:17.381Z,23.71
2023-09-21T09:28:50.066Z,23.90
2023-09-21T09:31:20.275Z,24.02
2023-09-21T09:33:51.678Z,24.15
2023-09-21T09:36:23.433Z,24.23
2023-09-21T09:38:54.291Z,24.43
2023-09-21T09:41:24.696Z,24.52
2023-09-21T09:44:01.043Z,24.61
2023-09-21T09:46:32.313Z,24.82
2023-09-21T09:49:03.774Z,25.01
2023-09-21T09:51:42.249Z,25.07
2023-09-21T09:54:13.174Z,25.19
2023-09-21T09:56:44.757Z,25.20
2023-09-21T09:59:17.555Z,25.34
2023-09-21T10:01:48.262Z,25.44
2023-09-21T10:04:19.889Z,25.58
2023-09-21T10:06:54.207Z,25.66
2023-09-21T10:09:27.659Z,25.76
2023-09-21T10:11:59.056Z,25.88
2023-09-21T10:14:32.492Z,26.04
2023-09-21T10:17:02.409Z,26.13
2023-09-21T10:19:38.010Z,25.98
2023-09-21T10:22:25.425Z,25.82
2023-09-21T10:24:55.624Z,25.78
2023-09-21T10:27:25.736Z,25.77
2023-09-21T10:30:07.606Z,25.88
2023-09-21T10:32:48.811Z,25.91
2023-09-21T10:35:23.559Z,25.90
2023-09-21T10:38:01.633Z,25.83
2023-09-21T10:40:34.407Z,25.78
2023-09-21T10:43:42.853Z,25.52
2023-09-21T10:46:23.944Z,25.42
2023-09-21T10:49:01.790Z,25.53
2023-09-21T10:51:32.650Z,25.57
2023-09-21T10:54:06.848Z,25.74
2023-09-21T10:56:38.985Z,25.80
2023-09-21T10:59:11.214Z,25.82
2023-09-21T11:01:43.786Z,25.66
2023-09-21T11:04:16.247Z,25.67
2023-09-21T11:06:47.463Z,25.84
2023-09-21T11:09:17.344Z,25.89
2023-09-21T11:11:48.147Z,26.03
2023-09-21T11:14:18.032Z,26.25
2023-09-21T11:16:51.029Z,26.37
2023-09-21T11:19:20.997Z,26.49
2023-09-21T11:21:50.993Z,26.52
2023-09-21T11:24:20.749Z,26.54
2023-09-21T11:26:51.341Z,26.49
2023-09-21T11:29:21.684Z,26.41
2023-09-21T11:31:55.538Z,26.35
2023-09-21T11:34:26.230Z,26.26
2023-09-21T11:36:56.609Z,26.34
2023-09-21T11:39:30.449Z,26.48
2023-09-21T11:42:00.970Z,26.34
2023-09-21T11:44:32.429Z,26.09
2023-09-21T11:47:05.291Z,26.10
2023-09-21T11:49:43.018Z,26.37
2023-09-21T11:52:15.056Z,26.46
2023-09-21T11:54:45.022Z,26.56
2023-09-21T11:57:12.574Z,26.55
2023-09-21T11:59:43.859Z,26.43
2023-09-21T12:02:18.309Z,26.34
2023-09-21T12:04:50.696Z,26.03
2023-09-21T12:07:21.188Z,25.81
2023-09-21T12:09:53.134Z,25.97
2023-09-21T12:12:23.403Z,25.93
2023-09-21T12:14:53.407Z,25.87
2023-09-21T12:17:27.543Z,25.61
2023-09-21T12:19:57.521Z,25.51
2023-09-21T12:22:28.448Z,25.40
2023-09-21T12:24:58.915Z,25.31
2023-09-21T12:27:28.691Z,25.34
2023-09-21T12:29:58.655Z,25.32
2023-09-21T12:32:32.803Z,25.36
2023-09-21T12:37:45.948Z,25.41
2023-09-21T12:40:17.062Z,25.40
